Time;durP1;ratioP1;P1;durP2;ratioP2;P2;SDS_P1;SDS_P2;PMS_P1;PMS_P2;Temp;Humidity;BMP_temperature;BMP_pressure;BME280_temperature;BME280_humidity;BME280_pressure;Samples;Min_cycle;Max_cycle;Signal;HPM_P1;HPM_P2
2021/10/28 00:14:17;;;;;;;29.63;16.03;;;2.20;99.90;;;;;;4173046;28;20335;-61
2021/10/28 00:16:25;;;;;;;30.57;16.47;;;2.20;99.90;;;;;;4183893;28;20756;-61
2021/10/28 00:18:39;;;;;;;38.07;17.20;;;2.20;99.90;;;;;;4189210;28;20295;-61
2021/10/28 00:20:40;;;;;;;34.80;17.23;;;2.10;99.90;;;;;;4188799;28;20257;-62
2021/10/28 00:22:42;;;;;;;41.30;17.33;;;2.00;99.90;;;;;;4189356;28;20319;-62
2021/10/28 00:24:43;;;;;;;37.40;18.07;;;2.00;99.90;;;;;;4188708;28;20355;-62
2021/10/28 00:26:47;;;;;;;39.97;18.20;;;2.00;99.90;;;;;;4190128;28;20273;-61
2021/10/28 00:28:56;;;;;;;35.23;18.07;;;1.90;99.90;;;;;;4176591;28;20295;-62
2021/10/28 00:30:57;;;;;;;35.67;17.83;;;1.90;99.90;;;;;;4189808;28;20277;-61
2021/10/28 00:32:59;;;;;;;33.73;17.33;;;1.90;99.90;;;;;;4188328;28;20273;-62
2021/10/28 00:35:01;;;;;;;33.83;16.03;;;1.90;99.90;;;;;;4189066;28;20826;-61
2021/10/28 00:37:02;;;;;;;37.63;17.27;;;1.90;99.90;;;;;;4188826;28;20318;-62
2021/10/28 00:39:05;;;;;;;35.17;16.53;;;1.90;99.90;;;;;;4189398;28;20265;-61
2021/10/28 00:41:06;;;;;;;34.83;16.57;;;1.90;99.90;;;;;;4188627;28;20764;-62
2021/10/28 00:43:07;;;;;;;30.30;15.30;;;1.80;99.90;;;;;;4188859;28;20261;-60
2021/10/28 00:45:09;;;;;;;31.37;15.50;;;1.80;99.90;;;;;;4188266;28;20782;-61
2021/10/28 00:47:11;;;;;;;28.33;13.20;;;1.80;99.90;;;;;;4189462;28;20265;-61
2021/10/28 00:49:12;;;;;;;24.43;13.10;;;1.80;99.90;;;;;;4188926;28;20266;-61
2021/10/28 00:51:14;;;;;;;37.20;16.13;;;1.80;99.90;;;;;;4189074;28;20753;-60
2021/10/28 00:53:16;;;;;;;30.97;16.03;;;1.80;99.90;;;;;;4189162;28;21072;-61
2021/10/28 00:55:17;;;;;;;34.03;16.93;;;1.70;99.90;;;;;;4189114;28;20270;-61
2021/10/28 00:57:19;;;;;;;31.43;15.63;;;1.50;99.90;;;;;;4188826;28;20269;-61
2021/10/28 00:59:20;;;;;;;31.83;16.17;;;1.50;99.90;;;;;;4188391;28;20818;-61
2021/10/28 01:01:21;;;;;;;30.93;15.63;;;1.50;99.90;;;;;;4189302;28;20311;-61
2021/10/28 01:03:22;;;;;;;30.10;16.73;;;1.50;99.90;;;;;;4188324;28;20323;-61
2021/10/28 01:05:23;;;;;;;35.83;17.23;;;1.40;99.90;;;;;;4188459;28;20327;-62
2021/10/28 01:07:25;;;;;;;33.83;16.60;;;1.40;99.90;;;;;;4188523;28;20265;-62
2021/10/28 01:09:26;;;;;;;39.77;17.57;;;1.40;99.90;;;;;;4189279;28;20261;-62
2021/10/28 01:11:28;;;;;;;35.17;17.97;;;1.40;99.90;;;;;;4188030;28;20307;-62
2021/10/28 01:13:29;;;;;;;33.27;16.87;;;1.40;99.90;;;;;;4189174;28;20269;-61
2021/10/28 01:15:30;;;;;;;30.53;16.20;;;1.40;99.90;;;;;;4188358;28;20265;-61
2021/10/28 01:17:31;;;;;;;33.30;17.27;;;1.40;99.90;;;;;;4188682;28;20261;-61
2021/10/28 01:19:33;;;;;;;31.57;16.40;;;1.40;99.90;;;;;;4188541;28;20265;-61
2021/10/28 01:21:34;;;;;;;38.43;16.07;;;1.40;99.90;;;;;;4188879;28;20275;-62
2021/10/28 01:23:38;;;;;;;32.83;17.47;;;1.40;99.90;;;;;;4188286;28;20343;-62
2021/10/28 01:25:41;;;;;;;32.37;16.37;;;1.40;99.90;;;;;;4188509;28;20814;-62
2021/10/28 01:27:42;;;;;;;36.47;16.80;;;1.40;99.90;;;;;;4187774;28;20335;-61
2021/10/28 01:29:43;;;;;;;35.17;16.10;;;1.40;99.90;;;;;;4191928;28;20327;-62
2021/10/28 01:31:44;;;;;;;32.40;15.50;;;1.30;99.90;;;;;;4191824;28;20274;-61
2021/10/28 01:33:46;;;;;;;37.40;15.90;;;1.30;99.90;;;;;;4191266;28;20265;-61
2021/10/28 01:35:48;;;;;;;29.33;14.37;;;1.20;99.90;;;;;;4191226;28;20323;-62
2021/10/28 01:37:50;;;;;;;36.57;15.70;;;1.10;99.90;;;;;;4190934;28;20261;-61
2021/10/28 01:39:51;;;;;;;30.43;14.80;;;0.90;99.90;;;;;;4191787;28;20253;-61
2021/10/28 01:41:54;;;;;;;27.93;15.53;;;0.80;99.90;;;;;;4191044;28;20253;-62
2021/10/28 01:43:56;;;;;;;30.43;15.40;;;0.70;99.90;;;;;;4191726;28;20300;-61
2021/10/28 01:45:57;;;;;;;32.50;15.50;;;0.60;99.90;;;;;;4190669;28;20265;-60
2021/10/28 01:48:02;;;;;;;34.67;16.27;;;0.50;99.90;;;;;;4191579;28;20628;-61
2021/10/28 01:50:03;;;;;;;36.50;15.40;;;0.40;99.90;;;;;;4185566;28;20778;-61
2021/10/28 01:52:05;;;;;;;34.77;16.83;;;0.30;99.90;;;;;;4191632;28;20277;-61
2021/10/28 01:54:06;;;;;;;40.37;18.10;;;0.20;99.90;;;;;;4191355;28;20310;-62
2021/10/28 01:56:09;;;;;;;38.20;18.73;;;0.10;99.90;;;;;;4190985;28;20293;-62
2021/10/28 01:58:11;;;;;;;41.13;18.67;;;0.00;99.90;;;;;;4190768;28;20261;-63
2021/10/28 02:00:23;;;;;;;37.67;19.27;;;-0.10;99.90;;;;;;4190989;28;20319;-62
2021/10/28 02:02:24;;;;;;;41.63;19.30;;;-0.10;99.90;;;;;;4191240;28;20819;-62
2021/10/28 02:04:25;;;;;;;44.07;20.87;;;-0.20;99.90;;;;;;4191473;28;20350;-61
2021/10/28 02:06:28;;;;;;;41.30;19.77;;;-0.30;99.90;;;;;;4190714;28;20819;-61
2021/10/28 02:08:29;;;;;;;50.37;22.67;;;-0.30;99.90;;;;;;4191134;28;20269;-61
2021/10/28 02:10:31;;;;;;;44.93;21.13;;;-0.50;99.90;;;;;;4191058;28;20343;-61
2021/10/28 02:12:33;;;;;;;49.57;21.63;;;-0.40;99.90;;;;;;4191027;28;20371;-62
2021/10/28 02:14:34;;;;;;;44.00;20.57;;;-0.40;99.90;;;;;;4191792;28;20706;-60
2021/10/28 02:16:36;;;;;;;43.27;21.33;;;-0.40;99.90;;;;;;4190729;28;20273;-62
2021/10/28 02:18:37;;;;;;;39.77;20.80;;;-0.20;99.90;;;;;;4190499;28;20764;-63
2021/10/28 02:20:38;;;;;;;41.40;20.47;;;-0.10;99.90;;;;;;4189284;28;20747;-63
2021/10/28 02:22:41;;;;;;;49.07;20.47;;;-0.10;99.90;;;;;;4191153;28;20342;-62
2021/10/28 02:24:42;;;;;;;41.20;20.00;;;-0.10;99.90;;;;;;4190222;28;21174;-62
2021/10/28 02:26:44;;;;;;;43.53;20.23;;;0.00;99.90;;;;;;4190946;28;20335;-63
2021/10/28 02:28:45;;;;;;;40.53;19.10;;;0.00;99.90;;;;;;4189453;28;20289;-62
2021/10/28 02:30:47;;;;;;;42.23;19.67;;;0.10;99.90;;;;;;4190534;28;20785;-62
2021/10/28 02:32:48;;;;;;;40.50;19.87;;;0.10;99.90;;;;;;4189822;28;20285;-62
2021/10/28 02:34:49;;;;;;;41.20;20.33;;;0.20;99.90;;;;;;4190362;28;20277;-62
2021/10/28 02:36:51;;;;;;;43.47;20.23;;;0.30;99.90;;;;;;4190992;28;20270;-62
2021/10/28 02:38:52;;;;;;;47.40;20.77;;;0.30;99.90;;;;;;4190517;28;20323;-63
2021/10/28 02:40:53;;;;;;;48.67;21.17;;;0.30;99.90;;;;;;4190343;28;20815;-63
2021/10/28 02:42:54;;;;;;;42.60;21.60;;;0.30;99.90;;;;;;4190762;28;20733;-62
2021/10/28 02:44:55;;;;;;;51.10;21.83;;;0.30;99.90;;;;;;4190773;28;20289;-62
2021/10/28 02:46:57;;;;;;;40.63;20.77;;;0.30;99.90;;;;;;4190064;28;20315;-63
2021/10/28 02:48:58;;;;;;;44.03;21.67;;;0.30;99.90;;;;;;4190957;28;20297;-60
2021/10/28 02:50:59;;;;;;;43.73;20.77;;;0.30;99.90;;;;;;4190262;28;20277;-60
2021/10/28 02:53:00;;;;;;;39.07;18.70;;;0.30;99.90;;;;;;4191411;28;20273;-63
2021/10/28 02:55:04;;;;;;;42.10;19.60;;;0.30;99.90;;;;;;4189938;28;20265;-61
2021/10/28 02:57:07;;;;;;;40.10;18.27;;;0.30;99.90;;;;;;4190293;28;20736;-62
2021/10/28 02:59:08;;;;;;;38.23;18.37;;;0.30;99.90;;;;;;4190491;28;20910;-61
2021/10/28 03:01:09;;;;;;;36.17;17.97;;;0.40;99.90;;;;;;4190773;28;20825;-62
2021/10/28 03:03:10;;;;;;;36.83;17.37;;;0.40;99.90;;;;;;4190410;28;20273;-63
2021/10/28 03:05:12;;;;;;;41.00;17.87;;;0.30;99.90;;;;;;4190332;28;20343;-61
2021/10/28 03:07:13;;;;;;;33.63;17.50;;;0.30;99.90;;;;;;4190296;28;20269;-62
2021/10/28 03:09:17;;;;;;;38.30;17.73;;;0.30;99.90;;;;;;4190354;28;20269;-61
2021/10/28 03:11:18;;;;;;;33.30;16.60;;;0.40;99.90;;;;;;4190566;28;20307;-62
2021/10/28 03:13:20;;;;;;;41.23;17.97;;;0.40;99.90;;;;;;4189913;28;20281;-62
2021/10/28 03:15:24;;;;;;;38.67;18.73;;;0.40;99.90;;;;;;4189783;28;20700;-61
2021/10/28 03:26:38;;;;;;;37.97;17.93;;;0.30;99.90;;;;;;4190606;28;20326;-62
2021/10/28 03:28:40;;;;;;;35.43;17.93;;;0.30;99.90;;;;;;4189911;28;20308;-62
2021/10/28 03:30:41;;;;;;;34.90;17.83;;;0.30;99.90;;;;;;4190098;28;20277;-62
2021/10/28 03:32:42;;;;;;;36.23;17.37;;;0.30;99.90;;;;;;4190098;28;20846;-61
2021/10/28 03:34:44;;;;;;;30.67;16.90;;;0.40;99.90;;;;;;4189290;28;20281;-62
2021/10/28 03:37:02;;;;;;;36.13;17.07;;;0.40;99.90;;;;;;4189554;28;20330;-62
2021/10/28 04:29:48;;;;;;;37.43;18.00;;;0.00;99.90;;;;;;4187858;28;20289;-62
2021/10/28 04:31:49;;;;;;;52.97;21.60;;;-0.20;99.90;;;;;;4189038;28;21134;-62
2021/10/28 04:33:51;;;;;;;48.03;23.70;;;-0.30;99.90;;;;;;4189005;28;20273;-62
2021/10/28 04:35:52;;;;;;;51.77;23.23;;;-0.40;99.90;;;;;;4187113;28;20269;-61
2021/10/28 04:37:53;;;;;;;55.23;24.50;;;-0.40;99.90;;;;;;4188172;28;20273;-62
2021/10/28 04:39:54;;;;;;;52.93;23.27;;;-0.40;99.90;;;;;;4188496;28;20331;-63
2021/10/28 04:41:56;;;;;;;45.47;20.90;;;-0.50;99.90;;;;;;4188756;28;20269;-63
2021/10/28 04:43:57;;;;;;;49.30;22.60;;;-0.50;99.90;;;;;;4187572;28;20273;-63
2021/10/28 04:45:58;;;;;;;57.93;26.77;;;-0.40;99.90;;;;;;4188639;28;20422;-62
2021/10/28 04:47:59;;;;;;;67.07;24.13;;;-0.40;99.90;;;;;;4187737;28;20273;-64
2021/10/28 04:50:00;;;;;;;48.30;21.77;;;-0.50;99.90;;;;;;4188517;28;20678;-62
2021/10/28 04:52:02;;;;;;;48.33;21.50;;;-0.50;99.90;;;;;;4187225;28;20289;-63
2021/10/28 04:54:03;;;;;;;47.10;21.70;;;-0.50;99.90;;;;;;4188654;28;20501;-62
2021/10/28 04:56:05;;;;;;;43.07;21.77;;;-0.50;99.90;;;;;;4188347;28;20257;-62
2021/10/28 04:58:06;;;;;;;42.60;21.17;;;-0.60;99.90;;;;;;4188975;28;20672;-63
2021/10/28 05:00:08;;;;;;;44.60;20.63;;;-0.60;99.90;;;;;;4188449;28;20830;-61
2021/10/28 05:02:09;;;;;;;54.43;21.90;;;-0.60;99.90;;;;;;4189087;28;20699;-62
2021/10/28 05:04:11;;;;;;;42.10;21.70;;;-0.60;99.90;;;;;;4191072;28;20756;-61
2021/10/28 05:06:12;;;;;;;43.73;22.60;;;-0.60;99.90;;;;;;4190907;28;21034;-63
2021/10/28 05:08:13;;;;;;;51.90;21.07;;;-0.60;99.90;;;;;;4191587;28;20725;-62
2021/10/28 05:10:15;;;;;;;46.30;21.33;;;-0.60;99.90;;;;;;4191620;28;20318;-63
2021/10/28 05:12:16;;;;;;;43.00;20.20;;;-0.60;99.90;;;;;;4191787;28;20291;-61
2021/10/28 05:14:17;;;;;;;48.90;22.43;;;-0.50;99.90;;;;;;4188101;28;21133;-62
2021/10/28 05:16:18;;;;;;;57.70;22.63;;;-0.40;99.90;;;;;;4202372;28;21001;-61
2021/10/28 05:18:23;;;;;;;57.40;24.60;;;-0.30;99.90;;;;;;4188990;28;20289;-61
2021/10/28 05:20:24;;;;;;;66.33;28.23;;;-0.10;99.90;;;;;;4187992;28;20693;-61
2021/10/28 05:22:25;;;;;;;66.43;30.60;;;0.00;99.90;;;;;;4191106;28;20323;-61
2021/10/28 05:24:26;;;;;;;54.67;26.83;;;0.20;99.90;;;;;;4190742;28;20776;-62
2021/10/28 05:26:28;;;;;;;161.27;69.37;;;0.40;99.90;;;;;;4190480;28;20277;-62
2021/10/28 05:28:29;;;;;;;135.67;68.73;;;0.50;99.90;;;;;;4191369;28;20293;-61
2021/10/28 05:30:30;;;;;;;145.73;71.83;;;0.70;99.90;;;;;;4191130;28;20667;-61
2021/10/28 05:32:31;;;;;;;188.07;85.83;;;0.90;99.90;;;;;;4191912;28;20277;-63
2021/10/28 05:34:32;;;;;;;138.43;65.90;;;1.10;99.90;;;;;;4191437;28;20265;-62
2021/10/28 05:36:33;;;;;;;141.07;63.83;;;1.30;99.90;;;;;;4190972;28;20265;-63
2021/10/28 05:38:34;;;;;;;102.87;49.43;;;1.50;99.90;;;;;;4190966;28;20323;-62
2021/10/28 05:40:36;;;;;;;119.00;53.00;;;1.80;99.90;;;;;;4190687;28;20257;-63
2021/10/28 05:42:42;;;;;;;120.40;56.40;;;2.00;99.90;;;;;;4190724;28;20324;-63
2021/10/28 05:44:43;;;;;;;144.53;65.23;;;2.20;99.90;;;;;;4189952;28;20402;-62
2021/10/28 05:46:44;;;;;;;120.60;50.63;;;2.30;99.90;;;;;;4190727;28;20335;-61
2021/10/28 05:48:46;;;;;;;138.83;60.73;;;2.50;99.90;;;;;;4190977;28;20327;-64
2021/10/28 05:50:48;;;;;;;154.37;68.03;;;2.70;99.90;;;;;;4189607;28;20327;-62
2021/10/28 05:52:51;;;;;;;178.07;73.13;;;2.80;99.90;;;;;;4190448;28;20273;-64
2021/10/28 05:54:53;;;;;;;154.50;68.40;;;2.90;99.90;;;;;;4191437;28;20326;-62
2021/10/28 05:56:54;;;;;;;144.60;62.33;;;3.30;99.90;;;;;;4189684;28;20269;-61
2021/10/28 05:58:57;;;;;;;139.33;56.53;;;3.50;99.90;;;;;;4190785;28;20285;-63
2021/10/28 06:01:01;;;;;;;123.40;55.83;;;3.40;99.90;;;;;;4185985;28;20324;-63
2021/10/28 06:03:02;;;;;;;135.07;55.23;;;3.50;99.90;;;;;;4181543;28;20351;-63
2021/10/28 06:05:05;;;;;;;117.10;47.93;;;3.60;99.90;;;;;;4181699;28;20776;-63
2021/10/28 06:07:06;;;;;;;113.73;48.60;;;4.00;99.90;;;;;;4190998;28;20285;-61
2021/10/28 06:09:07;;;;;;;129.23;56.73;;;4.50;99.90;;;;;;4191001;28;20307;-62
2021/10/28 06:11:09;;;;;;;132.33;56.10;;;4.80;99.90;;;;;;4183599;28;20277;-63
2021/10/28 06:13:10;;;;;;;124.67;56.20;;;5.10;99.90;;;;;;4189305;28;20028;-61
2021/10/28 06:15:13;;;;;;;108.67;49.97;;;5.40;99.90;;;;;;4190445;28;20442;-62
2021/10/28 06:17:17;;;;;;;100.30;46.70;;;5.50;99.90;;;;;;4191250;28;20037;-62
2021/10/28 06:19:18;;;;;;;102.87;49.80;;;5.80;99.90;;;;;;4191046;28;20028;-65
2021/10/28 06:21:24;;;;;;;92.90;43.10;;;6.00;99.90;;;;;;4190993;28;20553;-62
2021/10/28 06:23:25;;;;;;;86.90;39.20;;;6.20;99.90;;;;;;4190213;28;20125;-61
2021/10/28 06:25:27;;;;;;;92.27;35.63;;;6.40;99.90;;;;;;4188424;28;20451;-61
2021/10/28 06:27:28;;;;;;;86.43;33.60;;;6.20;99.90;;;;;;4190366;28;20024;-61
2021/10/28 06:29:29;;;;;;;82.47;33.03;;;6.00;99.90;;;;;;4189315;28;20048;-64
2021/10/28 06:31:30;;;;;;;82.03;34.10;;;5.70;99.90;;;;;;4189868;28;20558;-63
2021/10/28 06:33:35;;;;;;;71.83;33.87;;;5.50;99.90;;;;;;4191309;28;20094;-63
2021/10/28 06:35:37;;;;;;;84.63;33.17;;;5.20;99.90;;;;;;4190211;28;20370;-65
2021/10/28 06:37:44;;;;;;;77.30;31.67;;;5.00;99.90;;;;;;4190247;28;20032;-66
2021/10/28 06:39:46;;;;;;;80.87;30.60;;;5.40;99.90;;;;;;4188604;28;20036;-62
2021/10/28 06:41:47;;;;;;;60.80;27.07;;;5.60;99.90;;;;;;4190227;28;20033;-62
2021/10/28 06:43:48;;;;;;;63.90;25.23;;;5.70;99.90;;;;;;4188716;28;20439;-63
2021/10/28 06:45:49;;;;;;;50.73;24.23;;;6.00;99.90;;;;;;4190708;28;20048;-63
2021/10/28 06:47:50;;;;;;;47.87;23.00;;;6.20;99.90;;;;;;4204082;28;20438;-63
2021/10/28 06:49:51;;;;;;;61.67;25.40;;;6.30;99.90;;;;;;4198009;28;20028;-64
2021/10/28 06:51:52;;;;;;;61.00;24.20;;;6.60;99.90;;;;;;4192288;28;20392;-63
2021/10/28 06:54:41;;;;;;;57.63;25.97;;;6.70;99.90;;;;;;4193844;28;20090;-64
2021/10/28 06:56:39;;;;;;;68.23;25.53;;;6.80;99.90;;;;;;4181793;28;20190;-63
2021/10/28 07:03:15;;;;;;;49.17;24.43;;;6.70;99.90;;;;;;4189446;28;20114;-64
2021/10/28 07:05:16;;;;;;;56.50;25.53;;;6.80;99.90;;;;;;4190115;28;20041;-64
2021/10/28 07:07:18;;;;;;;55.30;26.10;;;6.90;99.90;;;;;;4188670;28;20065;-64
2021/10/28 07:09:27;;;;;;;55.83;26.87;;;7.10;99.90;;;;;;4189724;28;20078;-62
2021/10/28 07:11:32;;;;;;;67.80;27.43;;;7.00;99.90;;;;;;4187952;28;20028;-65
2021/10/28 07:13:34;;;;;;;71.20;27.73;;;7.10;99.90;;;;;;4187011;28;20033;-65
2021/10/28 07:15:41;;;;;;;70.43;26.93;;;6.80;99.90;;;;;;4189760;28;20024;-63
2021/10/28 07:18:02;;;;;;;72.37;27.60;;;6.40;99.90;;;;;;4190192;28;20534;-62
2021/10/28 07:20:18;;;;;;;64.53;26.25;;;6.30;99.90;;;;;;4189582;28;20102;-62
2021/10/28 07:35:36;;;;;;;53.88;27.60;;;6.20;99.90;;;;;;4173195;28;20083;-65
2021/10/28 08:22:42;;;;;;;42.83;21.83;;;7.70;99.90;;;;;;4188260;28;20024;-64
2021/10/28 08:29:39;;;;;;;43.58;24.40;;;7.40;99.90;;;;;;4187628;28;20093;-63
2021/10/28 08:31:41;;;;;;;41.33;22.13;;;7.40;99.90;;;;;;4187703;28;20040;-64
2021/10/28 08:33:42;;;;;;;47.90;26.03;;;7.40;99.90;;;;;;4187758;28;20438;-62
2021/10/28 08:35:52;;;;;;;55.10;26.77;;;7.40;99.90;;;;;;4186812;28;20468;-63
2021/10/28 08:37:56;;;;;;;45.10;24.15;;;7.60;99.90;;;;;;4187485;28;20484;-62
2021/10/28 08:39:58;;;;;;;30.10;17.87;;;7.80;99.90;;;;;;4188010;28;20458;-62
2021/10/28 08:42:02;;;;;;;36.10;18.50;;;7.90;99.90;;;;;;4188245;28;20044;-62
2021/10/28 08:44:05;;;;;;;36.33;14.43;;;8.00;99.90;;;;;;4188299;28;20074;-62
2021/10/28 08:46:07;;;;;;;23.87;13.60;;;7.90;99.90;;;;;;4187213;28;20059;-63
2021/10/28 08:48:08;;;;;;;25.43;13.77;;;7.80;99.90;;;;;;4189251;28;20053;-63
2021/10/28 08:50:12;;;;;;;32.77;15.30;;;7.50;99.90;;;;;;4187093;28;20078;-64
2021/10/28 09:25:17;;;;;;;29.47;18.40;;;8.10;99.90;;;;;;4187334;28;20067;-63
2021/10/28 09:27:29;;;;;;;32.73;18.30;;;8.20;99.90;;;;;;4187753;28;20078;-62
2021/10/28 09:31:38;;;;;;;35.37;17.57;;;8.60;99.90;;;;;;4188007;28;20090;-62
2021/10/28 09:36:11;;;;;;;34.70;18.63;;;8.70;99.90;;;;;;4187832;28;20443;-63
2021/10/28 09:44:07;;;;;;;36.23;19.67;;;8.70;99.90;;;;;;4155386;28;20095;-62
2021/10/28 09:46:19;;;;;;;31.87;18.93;;;8.90;99.90;;;;;;4164849;28;20048;-62
2021/10/28 09:50:51;;;;;;;32.90;17.93;;;9.10;99.90;;;;;;4188631;28;20114;-62
2021/10/28 09:53:36;;;;;;;35.13;18.30;;;9.10;99.90;;;;;;4190843;28;20194;-63
2021/10/28 09:59:56;;;;;;;33.27;17.33;;;9.60;99.90;;;;;;4182304;28;20032;-63
2021/10/28 10:02:11;;;;;;;27.40;15.10;;;9.60;99.90;;;;;;4190678;28;20749;-63
2021/10/28 10:04:12;;;;;;;34.40;17.57;;;9.70;99.90;;;;;;4189465;28;20075;-63
2021/10/28 10:06:25;;;;;;;35.20;16.97;;;9.60;99.90;;;;;;4189741;28;20377;-65
2021/10/28 10:08:27;;;;;;;31.03;15.83;;;9.70;99.90;;;;;;4189883;28;20082;-63
2021/10/28 10:10:29;;;;;;;26.17;15.60;;;9.80;99.90;;;;;;4190562;28;20090;-63
2021/10/28 10:12:31;;;;;;;31.70;18.13;;;9.80;99.90;;;;;;4188973;28;20094;-63
2021/10/28 10:14:37;;;;;;;29.10;15.27;;;9.90;99.90;;;;;;4190423;28;20036;-63
2021/10/28 10:16:39;;;;;;;26.93;14.83;;;10.00;99.70;;;;;;4189247;28;20033;-62
2021/10/28 10:18:40;;;;;;;26.60;14.50;;;10.10;99.70;;;;;;4190276;28;20037;-63
2021/10/28 10:25:51;;;;;;;25.48;13.57;;;10.40;99.10;;;;;;4190276;28;20071;-63
2021/10/28 10:28:20;;;;;;;24.08;14.20;;;10.50;99.10;;;;;;4189563;28;20044;-64
2021/10/28 11:21:19;;;;;;;27.03;12.50;;;12.40;94.60;;;;;;4178564;28;20094;-62
2021/10/28 12:19:55;;;;;;;21.73;9.83;;;13.70;90.30;;;;;;4187564;28;20098;-63
2021/10/28 12:28:03;;;;;;;21.27;9.53;;;13.80;89.40;;;;;;4153446;28;20045;-62
2021/10/28 12:45:09;;;;;;;18.40;9.52;;;13.90;86.80;;;;;;4172379;28;20102;-63
2021/10/28 12:52:27;;;;;;;16.25;8.77;;;13.90;86.30;;;;;;4188237;28;20086;-65
2021/10/28 14:25:17;;;;;;;22.13;12.23;;;13.80;80.90;;;;;;4190162;28;20765;-63
2021/10/28 15:29:11;;;;;;;73.30;25.53;;;11.80;85.80;;;;;;4189435;28;20086;-63
2021/10/28 15:33:44;;;;;;;54.95;20.42;;;11.60;86.20;;;;;;4189671;28;20032;-63
2021/10/28 15:35:47;;;;;;;59.57;19.80;;;11.50;86.50;;;;;;4189216;28;20098;-63
2021/10/28 15:40:04;;;;;;;56.77;18.40;;;11.30;87.20;;;;;;4189695;28;20098;-65
2021/10/28 16:21:51;;;;;;;38.73;16.73;;;10.20;90.70;;;;;;4172530;28;20090;-63
2021/10/28 16:23:52;;;;;;;61.53;21.23;;;10.20;90.90;;;;;;4170242;28;20102;-62
2021/10/28 16:25:53;;;;;;;58.83;22.93;;;10.20;91.10;;;;;;4172260;28;20379;-63
2021/10/28 16:27:54;;;;;;;64.67;23.10;;;10.10;91.10;;;;;;4170897;28;20094;-61
2021/10/28 16:29:55;;;;;;;64.50;24.67;;;10.00;91.10;;;;;;4172212;28;20053;-62
2021/10/28 16:31:57;;;;;;;53.43;23.20;;;10.00;91.20;;;;;;4172212;28;20029;-62
2021/10/28 16:33:58;;;;;;;64.63;25.37;;;10.00;91.30;;;;;;4172527;28;20107;-57
2021/10/28 16:35:59;;;;;;;71.43;26.40;;;9.90;91.20;;;;;;4171943;28;20094;-61
2021/10/28 16:38:03;;;;;;;63.47;28.70;;;9.80;91.40;;;;;;4171769;28;20067;-62
2021/10/28 16:40:05;;;;;;;63.37;28.30;;;9.60;91.40;;;;;;4172004;28;20538;-63
2021/10/28 16:42:07;;;;;;;67.33;29.57;;;9.50;91.50;;;;;;4171058;28;20032;-63
2021/10/28 16:44:08;;;;;;;61.17;26.77;;;9.40;91.60;;;;;;4171936;28;20501;-68
2021/10/28 16:46:09;;;;;;;70.17;28.67;;;9.30;91.60;;;;;;4171260;28;20025;-62
2021/10/28 16:48:11;;;;;;;68.70;29.77;;;9.20;91.70;;;;;;4172070;28;20044;-62
2021/10/28 16:50:13;;;;;;;89.73;37.50;;;9.20;91.70;;;;;;4173431;28;20040;-61
2021/10/28 16:52:15;;;;;;;92.60;42.10;;;9.10;91.80;;;;;;4188307;28;20427;-64
2021/10/28 16:54:18;;;;;;;89.83;41.83;;;9.10;91.90;;;;;;4187345;28;20062;-63
2021/10/28 16:56:19;;;;;;;83.93;36.47;;;9.10;92.00;;;;;;4187756;28;20040;-63
2021/10/28 16:58:21;;;;;;;82.87;33.70;;;9.00;91.90;;;;;;4185670;28;20485;-60
2021/10/28 17:00:22;;;;;;;76.67;33.80;;;9.00;91.90;;;;;;4186675;28;20044;-61
2021/10/28 17:02:23;;;;;;;80.87;33.00;;;8.90;92.00;;;;;;4187911;28;20032;-64
2021/10/28 17:04:24;;;;;;;90.23;34.90;;;8.90;92.20;;;;;;4188493;28;20033;-62
2021/10/28 17:06:25;;;;;;;87.30;36.37;;;8.80;92.20;;;;;;4185979;28;20032;-63
2021/10/28 17:08:28;;;;;;;94.47;44.90;;;8.80;92.30;;;;;;4188104;28;20049;-60
2021/10/28 17:10:30;;;;;;;97.00;43.03;;;8.70;92.50;;;;;;4188677;28;20013;-60
2021/10/28 17:12:31;;;;;;;96.03;39.63;;;8.80;92.60;;;;;;4188305;28;20090;-62
2021/10/28 17:14:32;;;;;;;85.67;37.80;;;8.70;92.70;;;;;;4189007;28;20052;-61
2021/10/28 17:16:36;;;;;;;95.40;40.70;;;8.80;92.70;;;;;;4188025;28;20094;-60
2021/10/28 17:18:37;;;;;;;69.03;33.70;;;8.70;92.90;;;;;;4188579;28;20479;-63
2021/10/28 17:20:38;;;;;;;86.87;37.80;;;8.60;93.00;;;;;;4187743;28;20094;-65
2021/10/28 17:22:39;;;;;;;106.30;44.53;;;8.50;93.00;;;;;;4188225;28;20438;-58
2021/10/28 17:24:49;;;;;;;95.57;43.23;;;8.50;93.20;;;;;;4187701;28;20415;-62
2021/10/28 17:26:50;;;;;;;104.20;44.53;;;8.40;93.30;;;;;;4188509;28;20082;-63
2021/10/28 17:28:51;;;;;;;116.67;44.97;;;8.40;93.50;;;;;;4187385;28;20040;-59
2021/10/28 17:30:53;;;;;;;101.77;44.27;;;8.30;93.70;;;;;;4187961;28;20102;-62
2021/10/28 17:32:55;;;;;;;110.83;48.30;;;8.30;93.80;;;;;;4187128;28;20090;-64
2021/10/28 17:34:57;;;;;;;93.53;44.43;;;8.30;94.00;;;;;;4188348;28;20058;-62
2021/10/28 17:36:58;;;;;;;103.53;45.83;;;8.20;94.00;;;;;;4187715;28;20110;-64
2021/10/28 17:38:59;;;;;;;108.73;48.70;;;8.20;94.00;;;;;;4187905;28;20542;-61
2021/10/28 17:41:04;;;;;;;107.70;50.57;;;8.20;94.10;;;;;;4188383;28;20550;-63
2021/10/28 17:43:11;;;;;;;115.97;53.33;;;8.10;94.20;;;;;;4187438;28;20484;-60
2021/10/28 17:45:13;;;;;;;125.00;59.50;;;8.00;94.30;;;;;;4187673;28;20094;-59
2021/10/28 17:47:15;;;;;;;126.93;55.00;;;7.90;94.60;;;;;;4187920;28;20044;-59
2021/10/28 17:49:17;;;;;;;132.40;60.17;;;7.80;94.80;;;;;;4188245;28;20094;-55
2021/10/28 17:51:18;;;;;;;116.93;49.70;;;7.70;94.80;;;;;;4188001;28;20094;-60
2021/10/28 17:53:19;;;;;;;108.10;49.90;;;7.70;95.10;;;;;;4188360;28;20045;-55
2021/10/28 17:55:21;;;;;;;546.60;257.73;;;7.70;95.20;;;;;;4187798;28;20044;-63
2021/10/28 17:57:22;;;;;;;461.63;235.10;;;7.60;95.30;;;;;;4188597;28;20029;-60
2021/10/28 17:59:23;;;;;;;99.23;47.37;;;7.60;95.40;;;;;;4187619;28;20032;-57
2021/10/28 18:01:26;;;;;;;109.27;48.90;;;7.60;95.40;;;;;;4188172;28;20044;-59
2021/10/28 18:03:27;;;;;;;117.83;53.07;;;7.60;95.50;;;;;;4187782;28;20480;-61
2021/10/28 18:05:28;;;;;;;123.00;59.27;;;7.50;95.70;;;;;;4188697;28;20028;-61
2021/10/28 18:07:29;;;;;;;102.03;50.77;;;7.40;95.90;;;;;;4186587;28;20057;-60
2021/10/28 18:09:30;;;;;;;177.27;82.73;;;7.40;96.10;;;;;;4187934;28;20041;-61
2021/10/28 18:11:33;;;;;;;251.37;112.77;;;7.30;96.20;;;;;;4188840;28;20122;-61
2021/10/28 18:13:35;;;;;;;998.00;482.17;;;7.30;96.30;;;;;;4190466;28;20070;-58
2021/10/28 18:15:36;;;;;;;128.40;55.60;;;7.40;96.40;;;;;;4189655;28;20688;-56
2021/10/28 18:17:39;;;;;;;125.97;54.90;;;7.30;96.50;;;;;;4189810;28;20037;-59
2021/10/28 18:19:42;;;;;;;96.23;45.70;;;7.30;96.50;;;;;;4188594;28;20044;-59
2021/10/28 18:21:45;;;;;;;106.00;45.83;;;7.20;96.70;;;;;;4187066;28;20032;-60
2021/10/28 18:23:48;;;;;;;166.93;76.17;;;7.20;96.70;;;;;;4187222;28;20036;-58
2021/10/28 18:25:49;;;;;;;110.13;46.83;;;7.20;96.70;;;;;;4185566;28;20033;-60
2021/10/28 18:27:56;;;;;;;144.27;65.83;;;7.10;96.80;;;;;;4185512;28;20173;-57
2021/10/28 18:29:57;;;;;;;100.17;43.80;;;7.00;96.90;;;;;;4184652;28;20056;-58
2021/10/28 18:31:58;;;;;;;90.70;43.53;;;7.00;97.20;;;;;;4186736;28;20036;-58
2021/10/28 18:34:01;;;;;;;104.90;45.80;;;6.90;97.40;;;;;;4185689;28;20029;-58
2021/10/28 18:36:05;;;;;;;133.70;59.37;;;6.80;97.60;;;;;;4185351;28;20044;-58
2021/10/28 18:38:09;;;;;;;92.33;41.37;;;6.80;97.70;;;;;;4185256;28;20403;-62
2021/10/28 18:40:12;;;;;;;81.60;37.43;;;6.80;97.70;;;;;;4185413;28;20594;-59
2021/10/28 18:42:13;;;;;;;76.77;35.23;;;6.80;97.70;;;;;;4184509;28;20082;-57
2021/10/28 18:44:15;;;;;;;79.17;36.77;;;6.80;97.90;;;;;;4185842;28;20517;-58
2021/10/28 18:46:20;;;;;;;75.67;37.03;;;6.70;98.00;;;;;;4184653;28;20032;-59
2021/10/28 18:48:23;;;;;;;73.90;35.00;;;6.70;98.10;;;;;;4186653;28;20381;-59
2021/10/28 18:50:24;;;;;;;77.37;35.80;;;6.60;98.20;;;;;;4187012;28;20177;-53
2021/10/28 18:52:26;;;;;;;75.73;37.17;;;6.60;98.30;;;;;;4187944;28;20542;-58
2021/10/28 18:54:27;;;;;;;69.80;35.20;;;6.50;98.50;;;;;;4188072;28;20554;-63
2021/10/28 18:56:28;;;;;;;85.60;38.23;;;6.50;98.60;;;;;;4185497;28;20056;-64
2021/10/28 18:58:30;;;;;;;82.47;37.50;;;6.50;98.70;;;;;;4185493;28;20102;-63
2021/10/28 19:00:32;;;;;;;71.93;36.00;;;6.50;98.80;;;;;;4183908;28;20082;-63
2021/10/28 19:02:35;;;;;;;85.50;37.47;;;6.50;98.80;;;;;;4185791;28;20358;-64
2021/10/28 19:04:37;;;;;;;77.90;37.30;;;6.40;98.80;;;;;;4187021;28;20070;-65
2021/10/28 19:06:38;;;;;;;78.13;37.17;;;6.40;98.90;;;;;;4187854;28;20024;-64
2021/10/28 19:08:41;;;;;;;94.77;39.43;;;6.30;98.90;;;;;;4188746;28;20825;-62
2021/10/28 19:10:42;;;;;;;83.87;41.67;;;6.30;99.10;;;;;;4190139;28;20496;-63
2021/10/28 19:12:44;;;;;;;91.00;41.17;;;6.20;99.20;;;;;;4190333;28;20052;-61
2021/10/28 19:14:45;;;;;;;85.47;39.87;;;6.10;99.30;;;;;;4190164;28;20036;-63